This is the latest recevied weather packets stored in our database for station/object IK6ZNK-3. If no packets are shown the sender has not sent any weather packets the latest 1 day(s).
| Time | Temp. | Humidity | Pressure | Rain* | Wind** | Luminosity | Snow |
|---|---|---|---|---|---|---|---|
| 1778049606 | 17.78° C | 73% | 1005.2 hPa | 0 mm | - | - | - |
| 1778048407 | 16.67° C | 75% | 1005.1 hPa | 0 mm | - | - | - |
| 1778047207 | 16.67° C | 71% | 1004.9 hPa | 0 mm | - | - | - |
| 1778044807 | 16.11° C | 71% | 1004.7 hPa | 0 mm | - | - | - |
| 1778043607 | 15° C | 75% | 1004.8 hPa | 0 mm | - | - | - |
| 1778041806 | 14.44° C | 77% | 1004.2 hPa | 0 mm | - | - | - |
| 1778041206 | 14.44° C | 77% | 1004.6 hPa | 0 mm | - | - | - |
| 1778040607 | 15.56° C | 75% | 1004.4 hPa | 0 mm | - | - | - |
| 1778039407 | 14.44° C | 75% | 1004.3 hPa | 0 mm | - | - | - |
| 1778037006 | 16.11° C | 68% | 1004.6 hPa | 0 mm | - | - | - |
| 1778033406 | 15° C | 73% | 1005.1 hPa | 0 mm | - | - | - |
| 1778032807 | 15.56° C | 73% | 1005 hPa | 0 mm | - | - | - |
| 1778032206 | 16.11° C | 71% | 1005 hPa | 0 mm | - | - | - |
| 1778031607 | 16.11° C | 71% | 1005 hPa | 0 mm | - | - | - |
| 1778030407 | 15.56° C | 74% | 1005.2 hPa | 0 mm | - | - | - |
| 1778029207 | 15.56° C | 74% | 1005.1 hPa | 0 mm | - | - | - |
| 1778026807 | 15° C | 80% | 1005.3 hPa | 0 mm | - | - | - |
| 1778026207 | 15° C | 81% | 1005.4 hPa | 0 mm | - | - | - |
| 1778025007 | 15° C | 81% | 1005.7 hPa | 0 mm | - | - | - |
| 1778020207 | 16.67° C | 70% | 1006.1 hPa | 0 mm | - | - | - |
| 1778014207 | 15.56° C | 82% | 1006.6 hPa | 0 mm | - | - | - |
| 1778013607 | 15.56° C | 82% | 1006.7 hPa | 0 mm | - | - | - |
| 1778013007 | 15.56° C | 79% | 1006.9 hPa | 0 mm | - | - | - |
* Rain latest hour (hover to see other rain measurements)
** Current wind speed in m/s (hover to see current wind gust speed)